createdAt,value
2022-10-01T00:00:05.115Z,97064.38
2022-10-01T00:02:37.983Z,97068.13
2022-10-01T00:05:06.457Z,97062.53
2022-10-01T00:07:40.804Z,97061.03
2022-10-01T00:10:08.589Z,97051.81
2022-10-01T00:12:35.043Z,97058.16
2022-10-01T00:15:05.922Z,97054.63
2022-10-01T00:17:33.745Z,97059.81
2022-10-01T00:20:00.320Z,97055.19
2022-10-01T00:22:26.729Z,97055.03
2022-10-01T00:24:53.116Z,97058.63
2022-10-01T00:27:19.721Z,97048.13
2022-10-01T00:29:46.192Z,97051.97
2022-10-01T00:32:12.601Z,97046.81
2022-10-01T00:34:39.085Z,97050.34
2022-10-01T00:37:05.996Z,97051.75
2022-10-01T00:39:32.373Z,97058.00
2022-10-01T00:41:58.771Z,97065.69
2022-10-01T00:44:36.534Z,97070.31
2022-10-01T00:47:08.413Z,97075.81
2022-10-01T00:49:37.841Z,97076.31
2022-10-01T00:52:08.798Z,97069.44
2022-10-01T00:54:43.324Z,97070.50
2022-10-01T00:57:11.429Z,97076.00
2022-10-01T00:59:37.922Z,97069.72
2022-10-01T01:02:04.644Z,97067.63
2022-10-01T01:04:32.478Z,97068.13
2022-10-01T01:07:01.885Z,97066.25
2022-10-01T01:09:32.610Z,97059.13
2022-10-01T01:12:24.645Z,97056.75
2022-10-01T01:14:59.732Z,97048.81
2022-10-01T01:17:39.871Z,97051.28
2022-10-01T01:20:26.329Z,97045.22
2022-10-01T01:23:16.947Z,97039.72
2022-10-01T01:26:25.451Z,97043.00
2022-10-01T01:28:59.366Z,97037.25
2022-10-01T01:31:32.923Z,97026.88
2022-10-01T01:34:00.827Z,97017.41
2022-10-01T01:36:32.396Z,97011.44
2022-10-01T01:39:07.005Z,97013.28
2022-10-01T01:41:38.442Z,97006.72
2022-10-01T01:44:09.766Z,97000.28
2022-10-01T01:46:40.222Z,97006.69
2022-10-01T01:49:07.881Z,96996.13
2022-10-01T01:51:42.032Z,96996.72
2022-10-01T01:54:08.916Z,97001.41
2022-10-01T01:56:35.712Z,96977.19
2022-10-01T01:59:03.501Z,96981.97
2022-10-01T02:01:41.824Z,96984.66
2022-10-01T02:04:12.956Z,96980.13
2022-10-01T02:06:42.743Z,96975.09
2022-10-01T02:09:30.993Z,96982.13
2022-10-01T02:12:26.508Z,96984.56
2022-10-01T02:14:58.477Z,96981.66
2022-10-01T02:17:46.441Z,96973.19
2022-10-01T02:20:35.276Z,96976.44
2022-10-01T02:23:34.503Z,96972.59
2022-10-01T02:26:10.888Z,96971.44
2022-10-01T02:28:40.603Z,96973.19
2022-10-01T02:31:09.121Z,96969.78
2022-10-01T02:33:38.277Z,96963.72
2022-10-01T02:36:08.278Z,96963.50
2022-10-01T02:38:38.337Z,96965.13
2022-10-01T02:41:07.789Z,96959.97
2022-10-01T02:43:42.712Z,96957.28
2022-10-01T02:46:48.245Z,96949.53
2022-10-01T02:49:15.059Z,96954.25
2022-10-01T02:52:11.629Z,96945.81
2022-10-01T02:54:47.083Z,96960.34
2022-10-01T02:57:27.240Z,96956.72
2022-10-01T02:59:57.623Z,96961.41
2022-10-01T03:02:27.482Z,96953.56
2022-10-01T03:04:56.131Z,96945.03
2022-10-01T03:07:22.642Z,96947.34
2022-10-01T03:09:49.661Z,96952.03
2022-10-01T03:12:19.170Z,96944.53
2022-10-01T03:14:46.437Z,96947.19
2022-10-01T03:17:14.170Z,96948.13
2022-10-01T03:19:41.220Z,96940.28
2022-10-01T03:22:08.519Z,96930.22
2022-10-01T03:24:35.331Z,96930.81
2022-10-01T03:27:01.740Z,96931.84
2022-10-01T03:29:28.407Z,96924.34
2022-10-01T03:31:55.148Z,96925.75
2022-10-01T03:34:21.710Z,96928.44
2022-10-01T03:36:48.429Z,96927.72
2022-10-01T03:39:15.876Z,96918.59
2022-10-01T03:41:42.295Z,96909.91
2022-10-01T03:44:08.751Z,96905.81
2022-10-01T03:46:35.169Z,96902.34
2022-10-01T03:49:01.745Z,96889.34
2022-10-01T03:51:29.221Z,96887.91
2022-10-01T03:53:56.751Z,96888.88
2022-10-01T03:56:24.265Z,96882.13
2022-10-01T03:58:51.076Z,96879.28
2022-10-01T04:01:17.640Z,96875.59
2022-10-01T04:03:44.332Z,96882.38
2022-10-01T04:06:11.480Z,96882.22
2022-10-01T04:08:38.785Z,96881.66
2022-10-01T04:11:06.869Z,96877.66
2022-10-01T04:13:34.549Z,96874.47
2022-10-01T04:16:05.416Z,96879.03
2022-10-01T04:18:32.580Z,96871.50
2022-10-01T04:20:59.130Z,96876.81
2022-10-01T04:23:26.001Z,96875.69
2022-10-01T04:25:52.671Z,96875.34
2022-10-01T04:28:19.429Z,96881.06
2022-10-01T04:30:46.528Z,96869.94
2022-10-01T04:33:15.337Z,96868.50
2022-10-01T04:35:43.335Z,96863.09
2022-10-01T04:38:16.707Z,96869.47
2022-10-01T04:40:43.548Z,96871.84
2022-10-01T04:43:12.437Z,96876.34
2022-10-01T04:45:39.197Z,96871.03
2022-10-01T04:48:05.776Z,96869.41
2022-10-01T04:50:32.274Z,96877.25
2022-10-01T04:52:58.748Z,96871.19
2022-10-01T04:55:25.220Z,96868.22
2022-10-01T04:57:51.761Z,96877.63
2022-10-01T05:00:21.770Z,96866.94
2022-10-01T05:02:49.952Z,96866.34
2022-10-01T05:05:18.697Z,96866.09
2022-10-01T05:07:45.812Z,96867.00
2022-10-01T05:10:17.642Z,96862.09
2022-10-01T05:12:45.519Z,96860.34
2022-10-01T05:15:12.482Z,96861.78
2022-10-01T05:17:38.884Z,96860.28
2022-10-01T05:20:07.617Z,96857.31
2022-10-01T05:22:34.225Z,96861.16
2022-10-01T05:25:00.756Z,96848.13
2022-10-01T05:27:27.864Z,96839.00
2022-10-01T05:29:54.324Z,96833.38
2022-10-01T05:32:20.737Z,96831.16
2022-10-01T05:34:51.268Z,96836.44
2022-10-01T05:37:19.945Z,96837.19
2022-10-01T05:39:46.505Z,96834.50
2022-10-01T05:42:13.039Z,96830.22
2022-10-01T05:44:40.836Z,96835.13
2022-10-01T05:47:07.319Z,96826.19
2022-10-01T05:49:33.912Z,96822.13
2022-10-01T05:52:00.957Z,96816.09
2022-10-01T05:54:29.473Z,96804.75
2022-10-01T05:56:56.913Z,96799.81
2022-10-01T05:59:25.537Z,96798.69
2022-10-01T06:01:53.880Z,96794.72
2022-10-01T06:04:20.566Z,96794.66
2022-10-01T06:06:46.971Z,96791.31
2022-10-01T06:09:13.918Z,96787.47
2022-10-01T06:11:40.599Z,96784.00
2022-10-01T06:14:07.287Z,96776.00
2022-10-01T06:16:33.780Z,96771.69
2022-10-01T06:19:00.340Z,96775.22
2022-10-01T06:21:27.692Z,96781.16
2022-10-01T06:23:54.658Z,96771.75
2022-10-01T06:26:21.745Z,96777.47
2022-10-01T06:28:52.571Z,96767.16
2022-10-01T06:31:19.634Z,96768.03
2022-10-01T06:33:46.100Z,96775.91
2022-10-01T06:36:12.648Z,96786.72
2022-10-01T06:38:39.139Z,96790.09
2022-10-01T06:41:05.813Z,96776.06
2022-10-01T06:43:33.064Z,96780.41
2022-10-01T06:46:03.844Z,96782.38
2022-10-01T06:48:31.330Z,96785.97
2022-10-01T06:50:58.779Z,96794.31
2022-10-01T06:53:27.491Z,96790.81
2022-10-01T06:55:54.506Z,96787.66
2022-10-01T06:58:22.968Z,96799.44
2022-10-01T07:00:50.546Z,96789.31
2022-10-01T07:03:21.895Z,96787.44
2022-10-01T07:05:49.313Z,96783.50
2022-10-01T07:08:16.572Z,96777.34
2022-10-01T07:10:44.174Z,96776.84
2022-10-01T07:13:20.170Z,96767.47
2022-10-01T07:15:47.148Z,96763.94
2022-10-01T07:18:13.942Z,96764.16
2022-10-01T07:20:41.262Z,96752.84
2022-10-01T07:23:11.293Z,96754.06
2022-10-01T07:25:39.632Z,96746.28
2022-10-01T07:28:08.515Z,96739.59
2022-10-01T07:30:35.124Z,96744.00
2022-10-01T07:33:01.508Z,96756.09
2022-10-01T07:35:29.134Z,96748.38
2022-10-01T07:37:55.532Z,96753.25
2022-10-01T07:40:22.121Z,96754.69
2022-10-01T07:42:56.097Z,96758.25
2022-10-01T07:45:24.193Z,96768.53
2022-10-01T07:47:55.632Z,96762.28
2022-10-01T07:50:22.709Z,96779.31
2022-10-01T07:52:53.774Z,96772.78
2022-10-01T07:55:21.493Z,96769.53
2022-10-01T07:57:55.627Z,96765.84
2022-10-01T08:00:23.681Z,96762.09
2022-10-01T08:02:51.833Z,96761.22
2022-10-01T08:05:20.231Z,96762.34
2022-10-01T08:07:47.580Z,96763.44
2022-10-01T08:10:15.349Z,96757.47
2022-10-01T08:12:44.537Z,96777.75
2022-10-01T08:15:12.755Z,96785.38
2022-10-01T08:17:39.400Z,96789.31
2022-10-01T08:20:07.863Z,96790.66
2022-10-01T08:22:36.582Z,96779.81
2022-10-01T08:25:06.881Z,96791.06
2022-10-01T08:27:33.326Z,96796.00
2022-10-01T08:29:59.772Z,96797.59
2022-10-01T08:32:27.966Z,96788.91
2022-10-01T08:34:59.873Z,96788.63
2022-10-01T08:37:28.285Z,96800.78
2022-10-01T08:39:56.134Z,96809.09
2022-10-01T08:42:54.044Z,96814.28
2022-10-01T08:45:26.062Z,96820.34
2022-10-01T08:48:03.874Z,96821.06
2022-10-01T08:50:53.543Z,96824.00
2022-10-01T08:53:31.656Z,96829.22
2022-10-01T08:56:00.297Z,96817.13
2022-10-01T08:58:35.044Z,96825.59
2022-10-01T09:01:01.513Z,96819.63
2022-10-01T09:03:31.562Z,96825.06
2022-10-01T09:06:17.014Z,96827.56
2022-10-01T09:09:05.527Z,96827.13
2022-10-01T09:11:38.388Z,96823.88
2022-10-01T09:14:19.831Z,96814.97
2022-10-01T09:17:06.241Z,96818.16
2022-10-01T09:19:40.924Z,96810.63
2022-10-01T09:22:40.405Z,96813.69
2022-10-01T09:25:09.758Z,96813.13
2022-10-01T09:27:38.340Z,96808.22
2022-10-01T09:30:18.240Z,96822.31
2022-10-01T09:32:56.004Z,96822.06
2022-10-01T09:35:47.068Z,96828.09
2022-10-01T09:38:28.580Z,96822.72
2022-10-01T09:40:59.197Z,96826.81
2022-10-01T09:43:31.677Z,96832.78
2022-10-01T09:45:58.667Z,96837.72
2022-10-01T09:48:47.600Z,96843.94
2022-10-01T09:51:18.174Z,96838.75
2022-10-01T09:54:03.357Z,96845.84
2022-10-01T09:56:37.158Z,96840.81
2022-10-01T09:59:10.674Z,96834.31
2022-10-01T10:02:15.315Z,96828.63
2022-10-01T10:04:41.967Z,96822.28
2022-10-01T10:07:16.116Z,96826.69
2022-10-01T10:09:43.198Z,96831.63
2022-10-01T10:12:26.490Z,96834.94
2022-10-01T10:14:55.838Z,96818.97
2022-10-01T10:17:23.029Z,96825.47
2022-10-01T10:19:52.325Z,96830.28
2022-10-01T10:22:24.924Z,96821.91
2022-10-01T10:24:53.360Z,96814.91
2022-10-01T10:27:30.066Z,96819.06
2022-10-01T10:30:13.841Z,96822.09
2022-10-01T10:32:41.416Z,96829.38
2022-10-01T10:35:22.679Z,96836.47
2022-10-01T10:37:52.069Z,96836.16
2022-10-01T10:40:39.797Z,96844.84
2022-10-01T10:43:06.405Z,96837.25
2022-10-01T10:45:38.622Z,96829.13
2022-10-01T10:48:11.653Z,96828.34
2022-10-01T10:50:40.906Z,96818.91
2022-10-01T10:53:25.049Z,96811.88
2022-10-01T10:56:06.338Z,96804.84
2022-10-01T10:58:39.681Z,96816.50
2022-10-01T11:01:11.870Z,96810.78
2022-10-01T11:03:46.350Z,96815.13
2022-10-01T11:06:15.664Z,96825.41
2022-10-01T11:08:43.326Z,96811.06
2022-10-01T11:11:22.364Z,96819.47
2022-10-01T11:14:35.227Z,96818.13
2022-10-01T11:17:18.118Z,96804.31
2022-10-01T11:20:00.861Z,96817.56
2022-10-01T11:22:27.263Z,96815.94
2022-10-01T11:25:00.928Z,96823.28
2022-10-01T11:27:42.978Z,96825.16
2022-10-01T11:30:18.761Z,96823.53
2022-10-01T11:32:49.769Z,96825.41
2022-10-01T11:35:35.028Z,96826.78
2022-10-01T11:38:24.522Z,96838.94
2022-10-01T11:41:03.817Z,96834.59
2022-10-01T11:43:39.067Z,96837.34
2022-10-01T11:46:14.683Z,96841.13
2022-10-01T11:48:46.492Z,96840.84
2022-10-01T11:51:22.783Z,96848.41
2022-10-01T11:53:53.988Z,96850.31
2022-10-01T11:57:04.190Z,96853.88
2022-10-01T11:59:39.832Z,96850.84
2022-10-01T12:02:37.363Z,96858.47
2022-10-01T12:05:10.283Z,96860.38
2022-10-01T12:07:59.107Z,96849.84
2022-10-01T12:10:40.576Z,96862.03
2022-10-01T12:13:22.670Z,96866.38
2022-10-01T12:15:52.685Z,96867.72
2022-10-01T12:18:39.225Z,96876.69
2022-10-01T12:21:33.324Z,96875.03
2022-10-01T12:24:35.958Z,96866.88
2022-10-01T12:27:27.481Z,96878.00
2022-10-01T12:30:04.248Z,96878.81
2022-10-01T12:32:39.568Z,96886.13
2022-10-01T12:35:40.120Z,96883.66
2022-10-01T12:38:13.877Z,96895.84
2022-10-01T12:40:47.940Z,96893.13
2022-10-01T12:43:51.144Z,96891.47
2022-10-01T12:46:37.667Z,96892.25
2022-10-01T12:49:22.143Z,96885.97
2022-10-01T12:52:01.698Z,96893.84
2022-10-01T12:54:46.420Z,96886.78
2022-10-01T12:57:22.881Z,96885.66
2022-10-01T13:00:03.689Z,96888.88
2022-10-01T13:03:04.009Z,96893.69
2022-10-01T13:05:46.736Z,96897.69
2022-10-01T13:08:15.988Z,96895.28
2022-10-01T13:10:56.941Z,96892.75
2022-10-01T13:13:32.825Z,96900.53
2022-10-01T13:16:12.761Z,96900.47
2022-10-01T13:18:56.531Z,96900.16
2022-10-01T13:21:57.368Z,96909.59
2022-10-01T13:24:28.557Z,96902.66
2022-10-01T13:27:09.932Z,96895.00
2022-10-01T13:29:46.271Z,96901.56
2022-10-01T13:32:37.238Z,96892.44
2022-10-01T13:35:32.912Z,96896.41
2022-10-01T13:38:13.576Z,96902.22
2022-10-01T13:40:40.573Z,96896.44
2022-10-01T13:43:12.693Z,96898.88
2022-10-01T13:45:39.013Z,96900.31
2022-10-01T13:48:11.635Z,96891.84
2022-10-01T13:50:55.182Z,96883.22
2022-10-01T13:53:29.613Z,96889.03
2022-10-01T13:55:56.957Z,96895.31
2022-10-01T13:58:33.674Z,96894.84
2022-10-01T14:01:04.145Z,96899.84
2022-10-01T14:03:49.668Z,96895.94
2022-10-01T14:06:32.766Z,96896.78
2022-10-01T14:09:05.348Z,96902.84
2022-10-01T14:11:54.424Z,96897.22
2022-10-01T14:14:44.304Z,96910.94
2022-10-01T14:17:11.536Z,96899.72
2022-10-01T14:19:46.760Z,96902.44
2022-10-01T14:22:18.434Z,96899.16
2022-10-01T14:25:04.524Z,96900.53
2022-10-01T14:27:46.904Z,96914.59
2022-10-01T14:30:17.440Z,96912.13
2022-10-01T14:33:03.805Z,96910.81
2022-10-01T14:35:33.048Z,96923.09
2022-10-01T14:38:01.447Z,96930.44
2022-10-01T14:40:38.046Z,96929.75
2022-10-01T14:43:17.807Z,96932.59
2022-10-01T14:46:01.686Z,96926.75
2022-10-01T14:48:30.708Z,96937.25
2022-10-01T14:51:01.600Z,96931.13
2022-10-01T14:53:32.377Z,96931.22
2022-10-01T14:56:05.240Z,96944.34
2022-10-01T14:58:44.435Z,96951.41
2022-10-01T15:01:21.667Z,96949.81
2022-10-01T15:03:49.313Z,96941.59
2022-10-01T15:06:20.234Z,96935.84
2022-10-01T15:08:49.446Z,96939.94
2022-10-01T15:11:23.156Z,96952.50
2022-10-01T15:13:51.827Z,96944.94
2022-10-01T15:16:24.028Z,96955.81
2022-10-01T15:18:56.445Z,96950.72
2022-10-01T15:21:38.304Z,96939.34
2022-10-01T15:24:11.864Z,96937.22
2022-10-01T15:26:38.388Z,96951.81
2022-10-01T15:29:13.679Z,96950.28
2022-10-01T15:31:41.187Z,96959.31
2022-10-01T15:34:12.117Z,96955.19
2022-10-01T15:36:40.358Z,96948.56
2022-10-01T15:39:30.765Z,96942.75
2022-10-01T15:41:58.711Z,96953.69
2022-10-01T15:44:39.874Z,96953.41
2022-10-01T15:47:30.540Z,96952.59
2022-10-01T15:50:12.278Z,96954.28
2022-10-01T15:52:51.288Z,96969.63
2022-10-01T15:55:28.916Z,96963.31
2022-10-01T15:58:01.965Z,96970.19
2022-10-01T16:00:38.803Z,96978.34
2022-10-01T16:03:05.265Z,96995.19
2022-10-01T16:05:37.057Z,96981.56
2022-10-01T16:08:03.769Z,96987.28
2022-10-01T16:10:40.637Z,96999.00
2022-10-01T16:13:46.605Z,96992.69
2022-10-01T16:16:13.074Z,97003.31
2022-10-01T16:18:40.342Z,97004.13
2022-10-01T16:21:09.760Z,97001.72
2022-10-01T16:23:49.185Z,97015.03
2022-10-01T16:26:33.668Z,97016.16
2022-10-01T16:29:04.173Z,97014.56
2022-10-01T16:31:30.896Z,97026.78
2022-10-01T16:33:57.478Z,97023.78
2022-10-01T16:36:26.133Z,97021.84
2022-10-01T16:38:52.524Z,97024.69
2022-10-01T16:41:25.147Z,97024.16
2022-10-01T16:43:54.233Z,97020.09
2022-10-01T16:46:20.694Z,97027.44
2022-10-01T16:48:49.465Z,97031.84
2022-10-01T16:51:15.933Z,97035.34
2022-10-01T16:53:45.809Z,97044.31
2022-10-01T16:56:12.524Z,97042.97
2022-10-01T16:58:39.055Z,97042.97
2022-10-01T17:01:09.950Z,97048.69
2022-10-01T17:03:36.582Z,97055.75
2022-10-01T17:06:03.531Z,97059.28
2022-10-01T17:08:30.012Z,97056.84
2022-10-01T17:11:00.479Z,97048.97
2022-10-01T17:13:34.768Z,97066.09
2022-10-01T17:16:01.670Z,97077.50
2022-10-01T17:18:28.369Z,97078.84
2022-10-01T17:20:56.037Z,97074.75
2022-10-01T17:23:22.753Z,97089.16
2022-10-01T17:25:49.496Z,97082.38
2022-10-01T17:28:18.742Z,97083.47
2022-10-01T17:30:47.889Z,97097.84
2022-10-01T17:33:15.860Z,97096.78
2022-10-01T17:35:44.740Z,97094.06
2022-10-01T17:38:12.509Z,97101.38
2022-10-01T17:40:40.654Z,97112.53
2022-10-01T17:43:07.521Z,97109.28
2022-10-01T17:45:33.955Z,97112.81
2022-10-01T17:48:01.058Z,97115.00
2022-10-01T17:50:27.858Z,97119.88
2022-10-01T17:52:54.270Z,97128.59
2022-10-01T17:55:23.514Z,97137.81
2022-10-01T17:57:50.037Z,97149.50
2022-10-01T18:00:16.880Z,97155.75
2022-10-01T18:02:43.670Z,97158.19
2022-10-01T18:05:14.268Z,97160.63
2022-10-01T18:07:41.924Z,97168.22
2022-10-01T18:10:11.717Z,97157.09
2022-10-01T18:12:38.286Z,97167.97
2022-10-01T18:15:05.500Z,97178.81
2022-10-01T18:17:33.172Z,97182.88
2022-10-01T18:19:59.846Z,97187.25
2022-10-01T18:22:27.220Z,97195.41
2022-10-01T18:24:54.125Z,97203.28
2022-10-01T18:27:20.575Z,97218.75
2022-10-01T18:29:46.986Z,97225.19
2022-10-01T18:32:20.828Z,97217.19
2022-10-01T18:34:54.849Z,97232.94
2022-10-01T18:37:43.797Z,97241.06
2022-10-01T18:40:29.013Z,97244.03
2022-10-01T18:43:08.400Z,97248.38
2022-10-01T18:46:12.726Z,97253.16
2022-10-01T18:49:14.364Z,97260.44
2022-10-01T18:51:51.809Z,97287.56
2022-10-01T18:54:23.872Z,97272.06
2022-10-01T18:56:56.705Z,97261.75
2022-10-01T18:59:43.192Z,97273.66
2022-10-01T19:02:32.916Z,97266.59
2022-10-01T19:05:24.824Z,97262.56
2022-10-01T19:07:51.153Z,97278.06
2022-10-01T19:10:35.951Z,97269.66
2022-10-01T19:13:13.641Z,97265.56
2022-10-01T19:16:00.478Z,97272.78
2022-10-01T19:19:01.492Z,97269.78
2022-10-01T19:21:52.534Z,97286.88
2022-10-01T19:24:40.184Z,97292.28
2022-10-01T19:27:30.685Z,97298.75
2022-10-01T19:30:06.117Z,97316.97
2022-10-01T19:32:41.448Z,97309.22
2022-10-01T19:35:23.473Z,97312.94
2022-10-01T19:38:01.232Z,97326.75
2022-10-01T19:40:30.725Z,97325.66
2022-10-01T19:43:15.668Z,97328.94
2022-10-01T19:45:57.349Z,97334.66
2022-10-01T19:48:44.017Z,97344.47
2022-10-01T19:51:13.124Z,97348.81
2022-10-01T19:53:45.555Z,97347.22
2022-10-01T19:56:33.190Z,97359.41
2022-10-01T19:59:19.729Z,97347.75
2022-10-01T20:01:55.240Z,97361.06
2022-10-01T20:04:31.749Z,97364.09
2022-10-01T20:07:05.075Z,97363.75
2022-10-01T20:09:44.486Z,97374.13
2022-10-01T20:12:41.126Z,97376.59
2022-10-01T20:15:11.580Z,97385.34
2022-10-01T20:18:19.249Z,97382.94
2022-10-01T20:21:04.189Z,97384.63
2022-10-01T20:23:42.556Z,97398.72
2022-10-01T20:26:31.292Z,97403.44
2022-10-01T20:29:25.442Z,97398.28
2022-10-01T20:32:01.611Z,97402.38
2022-10-01T20:34:33.747Z,97406.47
2022-10-01T20:37:38.274Z,97417.38
2022-10-01T20:40:18.667Z,97413.94
2022-10-01T20:42:49.790Z,97408.28
2022-10-01T20:45:28.518Z,97420.78
2022-10-01T20:48:10.165Z,97417.25
2022-10-01T20:50:44.577Z,97427.81
2022-10-01T20:53:30.105Z,97428.34
2022-10-01T20:56:02.908Z,97420.25
2022-10-01T20:58:30.987Z,97421.91
2022-10-01T21:01:10.061Z,97423.56
2022-10-01T21:03:41.749Z,97426.31
2022-10-01T21:06:14.364Z,97434.47
2022-10-01T21:08:43.630Z,97432.53
2022-10-01T21:11:21.804Z,97439.34
2022-10-01T21:13:58.774Z,97447.53
2022-10-01T21:16:46.543Z,97442.66
2022-10-01T21:19:36.169Z,97453.53
2022-10-01T21:22:42.792Z,97453.50
2022-10-01T21:25:35.635Z,97468.44
2022-10-01T21:28:18.498Z,97461.63
2022-10-01T21:30:57.136Z,97472.25
2022-10-01T21:33:34.767Z,97479.41
2022-10-01T21:36:10.853Z,97475.84
2022-10-01T21:38:48.970Z,97486.31
2022-10-01T21:41:34.378Z,97492.34
2022-10-01T21:44:15.245Z,97492.34
2022-10-01T21:46:54.632Z,97494.66
2022-10-01T21:49:33.263Z,97489.16
2022-10-01T21:52:27.209Z,97500.31
2022-10-01T21:55:12.084Z,97506.50
2022-10-01T21:58:10.509Z,97511.16
2022-10-01T22:00:37.029Z,97515.69
2022-10-01T22:03:28.005Z,97512.16
2022-10-01T22:06:12.121Z,97518.38
2022-10-01T22:08:47.565Z,97523.03
2022-10-01T22:11:18.688Z,97524.63
2022-10-01T22:13:58.337Z,97527.84
2022-10-01T22:16:28.993Z,97532.78
2022-10-01T22:18:58.057Z,97539.84
2022-10-01T22:21:31.240Z,97540.78
2022-10-01T22:24:08.448Z,97528.84
2022-10-01T22:26:39.733Z,97533.22
2022-10-01T22:29:12.162Z,97528.28
2022-10-01T22:31:39.839Z,97544.31
2022-10-01T22:34:12.228Z,97538.88
2022-10-01T22:37:12.577Z,97538.03
2022-10-01T22:40:03.422Z,97552.75
2022-10-01T22:42:38.236Z,97547.47
2022-10-01T22:45:16.400Z,97549.84
2022-10-01T22:48:16.480Z,97553.66
2022-10-01T22:50:49.135Z,97551.41
2022-10-01T22:53:32.045Z,97553.25
2022-10-01T22:55:58.749Z,97550.69
2022-10-01T22:58:52.139Z,97550.47
2022-10-01T23:01:37.104Z,97557.28
2022-10-01T23:04:10.397Z,97553.66
2022-10-01T23:07:14.096Z,97566.91
2022-10-01T23:10:05.351Z,97573.41
2022-10-01T23:12:40.801Z,97563.63
2022-10-01T23:15:29.045Z,97578.00
2022-10-01T23:18:20.718Z,97570.75
2022-10-01T23:21:18.266Z,97568.50
2022-10-01T23:23:56.193Z,97565.19
2022-10-01T23:26:28.343Z,97568.28
2022-10-01T23:29:01.054Z,97567.22
2022-10-01T23:31:40.443Z,97588.41
2022-10-01T23:34:24.754Z,97602.97
2022-10-01T23:37:06.518Z,97594.28
2022-10-01T23:39:32.955Z,97606.75
2022-10-01T23:42:08.744Z,97599.72
2022-10-01T23:44:51.934Z,97598.06
2022-10-01T23:47:30.901Z,97607.84
2022-10-01T23:50:00.338Z,97600.63
2022-10-01T23:52:38.833Z,97610.75
2022-10-01T23:55:33.762Z,97614.16
2022-10-01T23:58:03.384Z,97619.63
